Time;durP1;ratioP1;P1;durP2;ratioP2;P2;SDS_P1;SDS_P2;PMS_P1;PMS_P2;Temp;Humidity;BMP_temperature;BMP_pressure;BME280_temperature;BME280_humidity;BME280_pressure;Samples;Min_cycle;Max_cycle;Signal;HPM_P1;HPM_P2
2023/05/18 00:01:18;;;;;;;12.40;4.32;;;;;;;14.31;58.73;102088.84;4969055;28;20066;-47
2023/05/18 00:03:46;;;;;;;17.40;4.28;;;;;;;14.33;58.77;102083.72;4968566;28;20050;-47
2023/05/18 00:06:13;;;;;;;5.88;3.83;;;;;;;14.34;58.77;102081.75;4969648;28;20055;-48
2023/05/18 00:08:39;;;;;;;7.35;2.90;;;;;;;14.28;59.00;102083.06;4969850;28;20050;-44
2023/05/18 00:11:06;;;;;;;8.60;3.92;;;;;;;14.20;58.98;102081.16;4969070;28;20569;-45
2023/05/18 00:13:33;;;;;;;9.52;3.40;;;;;;;14.11;59.00;102085.97;4968957;28;20519;-51
2023/05/18 00:16:01;;;;;;;9.05;4.15;;;;;;;14.11;59.31;102077.63;4969353;28;20784;-48
2023/05/18 00:18:29;;;;;;;6.30;3.00;;;;;;;14.11;59.28;102074.84;4952167;28;20067;-50
2023/05/18 00:20:59;;;;;;;6.65;3.80;;;;;;;14.03;59.42;102068.19;4968793;28;20421;-46
2023/05/18 00:23:31;;;;;;;8.80;3.00;;;;;;;14.01;59.60;102074.06;4971731;28;20050;-45
2023/05/18 00:26:00;;;;;;;5.60;3.03;;;;;;;13.97;59.68;102067.56;4973019;28;20051;-45
2023/05/18 00:28:29;;;;;;;7.60;2.83;;;;;;;13.94;59.69;102072.97;4971464;28;20097;-46
2023/05/18 00:30:56;;;;;;;9.30;3.40;;;;;;;13.91;59.84;102062.50;4973140;28;20117;-49
2023/05/18 00:33:22;;;;;;;7.63;4.07;;;;;;;13.91;59.96;102063.31;4972766;28;20077;-47
2023/05/18 00:35:49;;;;;;;7.15;2.40;;;;;;;13.87;59.92;102056.78;4972781;28;20049;-46
2023/05/18 00:38:16;;;;;;;7.07;2.67;;;;;;;13.83;59.91;102055.81;4971549;28;20109;-45
2023/05/18 00:40:43;;;;;;;7.75;3.00;;;;;;;13.83;59.88;102052.22;4972564;28;20051;-45
2023/05/18 00:43:10;;;;;;;4.63;2.53;;;;;;;13.78;59.91;102050.44;4972194;28;20047;-47
2023/05/18 00:45:37;;;;;;;6.10;2.67;;;;;;;13.76;59.85;102061.09;4972354;28;20485;-45
2023/05/18 00:48:04;;;;;;;5.72;2.60;;;;;;;13.73;60.08;102061.78;4972366;28;20066;-47
2023/05/18 00:50:31;;;;;;;7.88;2.50;;;;;;;13.75;60.28;102059.47;4972644;28;20485;-46
2023/05/18 00:52:59;;;;;;;6.00;2.75;;;;;;;13.75;60.06;102053.91;4954389;28;20548;-46
2023/05/18 00:55:27;;;;;;;5.18;2.90;;;;;;;13.63;60.06;102056.59;4971972;28;20109;-46
2023/05/18 00:57:55;;;;;;;5.15;2.10;;;;;;;13.57;60.44;102057.91;4970561;28;20051;-46
2023/05/18 01:00:23;;;;;;;7.10;2.38;;;;;;;13.57;60.56;102057.09;4970870;28;20229;-47
2023/05/18 01:02:50;;;;;;;5.82;2.53;;;;;;;13.56;60.41;102056.28;4972164;28;20524;-48
2023/05/18 01:05:18;;;;;;;2.85;2.15;;;;;;;13.48;60.81;102065.47;4972360;28;20475;-45
2023/05/18 01:07:46;;;;;;;5.93;2.92;;;;;;;13.39;60.66;102061.91;4972452;28;20081;-45
2023/05/18 01:10:16;;;;;;;6.80;2.35;;;;;;;13.38;60.87;102066.66;4971177;28;20496;-46
2023/05/18 01:12:43;;;;;;;5.00;2.05;;;;;;;13.38;61.02;102057.47;4954502;28;20429;-45
2023/05/18 01:15:21;;;;;;;4.78;2.05;;;;;;;13.31;61.08;102066.34;4971925;28;20047;-45
2023/05/18 01:18:03;;;;;;;3.80;2.33;;;;;;;13.29;61.10;102056.72;4972140;28;20078;-45
2023/05/18 01:20:38;;;;;;;5.30;2.15;;;;;;;13.32;61.01;102056.03;4971780;28;20545;-45
2023/05/18 01:23:28;;;;;;;7.22;3.25;;;;;;;13.33;61.12;102057.66;4972200;28;20475;-50
2023/05/18 01:25:55;;;;;;;4.28;2.70;;;;;;;13.31;61.09;102057.19;4960163;28;20057;-45
2023/05/18 01:28:26;;;;;;;4.25;2.30;;;;;;;13.29;61.11;102062.28;4969962;28;20488;-45
2023/05/18 01:30:54;;;;;;;5.38;2.45;;;;;;;13.25;61.20;102051.00;4971477;28;20055;-47
2023/05/18 01:33:23;;;;;;;4.45;2.20;;;;;;;13.25;61.37;102061.28;4970779;28;20054;-45
2023/05/18 01:35:50;;;;;;;6.75;3.05;;;;;;;13.20;61.55;102055.91;4966818;28;20333;-48
2023/05/18 01:38:23;;;;;;;6.88;2.35;;;;;;;13.18;61.81;102056.25;4971542;28;20038;-52
2023/05/18 01:41:08;;;;;;;5.13;2.58;;;;;;;13.16;61.93;102058.53;4971081;28;20537;-46
2023/05/18 01:43:41;;;;;;;10.85;3.08;;;;;;;13.16;61.92;102057.69;4971875;28;20330;-49
2023/05/18 01:46:35;;;;;;;6.28;2.40;;;;;;;13.10;61.96;102054.31;4970457;28;20046;-44
2023/05/18 01:49:10;;;;;;;7.32;2.80;;;;;;;13.07;62.06;102054.13;4958657;28;20113;-45
2023/05/18 01:51:42;;;;;;;5.25;2.47;;;;;;;13.04;62.15;102051.97;4970112;28;20043;-45
2023/05/18 01:54:11;;;;;;;8.60;2.55;;;;;;;13.01;62.25;102063.75;4970917;28;20663;-45
2023/05/18 01:56:39;;;;;;;4.47;2.22;;;;;;;12.97;62.56;102049.72;4957319;28;20043;-50
2023/05/18 01:59:07;;;;;;;6.18;1.65;;;;;;;12.94;62.56;102061.50;4971495;28;20063;-47
2023/05/18 02:01:34;;;;;;;6.20;2.33;;;;;;;12.96;62.85;102061.97;4970192;28;20097;-46
2023/05/18 02:04:01;;;;;;;4.40;2.55;;;;;;;12.94;62.90;102053.16;4970781;28;20061;-49
2023/05/18 02:06:28;;;;;;;9.90;3.05;;;;;;;12.98;62.98;102061.63;4970798;28;20057;-45
2023/05/18 02:08:55;;;;;;;7.43;2.63;;;;;;;12.96;62.87;102053.63;4970771;28;20185;-46
2023/05/18 02:11:22;;;;;;;6.82;2.13;;;;;;;12.90;63.03;102052.16;4970947;28;20131;-46
2023/05/18 02:13:49;;;;;;;7.20;2.67;;;;;;;12.88;63.33;102050.88;4953406;28;20111;-47
2023/05/18 02:16:16;;;;;;;4.90;2.20;;;;;;;12.82;63.37;102053.81;4970882;28;20101;-45
2023/05/18 02:18:43;;;;;;;4.78;2.50;;;;;;;12.78;63.57;102052.84;4969761;28;20055;-50
2023/05/18 02:21:12;;;;;;;9.23;4.00;;;;;;;12.73;63.62;102050.22;4970919;28;20047;-45
2023/05/18 02:23:40;;;;;;;7.82;5.05;;;;;;;12.70;63.96;102050.91;4970780;28;20066;-50
2023/05/18 02:26:07;;;;;;;4.07;2.28;;;;;;;12.71;64.09;102049.72;4969607;28;20102;-47
2023/05/18 02:28:33;;;;;;;7.35;2.83;;;;;;;12.65;64.22;102053.84;4970308;28;20627;-46
2023/05/18 02:31:06;;;;;;;5.68;2.50;;;;;;;12.63;64.45;102055.28;4969676;28;20105;-46
2023/05/18 02:33:38;;;;;;;3.63;2.40;;;;;;;12.65;64.48;102055.78;4970979;28;20246;-45
2023/05/18 02:36:12;;;;;;;6.75;2.47;;;;;;;12.69;64.47;102053.97;4969662;28;20053;-46
2023/05/18 02:38:42;;;;;;;7.00;3.00;;;;;;;12.66;64.64;102058.22;4970244;28;20137;-45
2023/05/18 02:41:09;;;;;;;3.85;2.67;;;;;;;12.64;64.68;102046.63;4970390;28;20041;-46
2023/05/18 02:43:36;;;;;;;3.30;2.25;;;;;;;12.64;64.99;102052.19;4970506;28;20084;-49
2023/05/18 02:46:03;;;;;;;7.90;2.83;;;;;;;12.65;65.35;102048.28;4969158;28;20074;-45
2023/05/18 02:48:30;;;;;;;4.53;2.42;;;;;;;12.67;65.35;102046.00;4970261;28;20089;-45
2023/05/18 02:50:57;;;;;;;8.05;3.08;;;;;;;12.61;65.29;102046.47;4963406;28;20101;-48
2023/05/18 02:53:25;;;;;;;3.13;1.95;;;;;;;12.56;65.72;102043.84;4960173;28;20409;-45
2023/05/18 02:55:57;;;;;;;5.07;2.00;;;;;;;12.54;65.80;102041.41;4966596;28;20390;-48
2023/05/18 02:58:24;;;;;;;4.15;1.95;;;;;;;12.55;65.94;102043.03;4958336;28;20067;-45
2023/05/18 03:00:54;;;;;;;7.93;2.17;;;;;;;12.61;65.99;102047.28;4996527;22;20254;-49
2023/05/18 03:03:22;;;;;;;6.35;1.95;;;;;;;12.61;66.15;102054.81;4975905;28;20047;-44
2023/05/18 03:05:52;;;;;;;7.43;2.40;;;;;;;12.58;66.07;102047.94;4969787;28;20078;-46
2023/05/18 03:08:21;;;;;;;4.10;2.20;;;;;;;12.57;66.38;102051.88;4953366;28;20058;-46
2023/05/18 03:10:49;;;;;;;4.03;2.17;;;;;;;12.60;66.30;102048.41;4969013;28;20078;-44
2023/05/18 03:13:16;;;;;;;5.78;2.22;;;;;;;12.64;66.51;102054.97;4970026;28;20054;-45
2023/05/18 03:15:45;;;;;;;7.45;2.63;;;;;;;12.60;66.71;102050.41;4969599;28;20050;-46
2023/05/18 03:18:12;;;;;;;10.70;2.33;;;;;;;12.59;66.76;102055.16;4969990;28;20055;-46
2023/05/18 03:20:39;;;;;;;6.55;3.15;;;;;;;12.59;66.71;102049.59;4969714;28;20039;-45
2023/05/18 03:23:06;;;;;;;6.03;2.88;;;;;;;12.55;66.83;102054.16;4969768;28;20571;-45
2023/05/18 03:25:36;;;;;;;6.03;2.97;;;;;;;12.57;67.03;102046.31;4969471;28;20175;-46
2023/05/18 03:28:04;;;;;;;8.30;2.70;;;;;;;12.57;67.00;102051.06;4968847;28;20105;-48
2023/05/18 03:30:32;;;;;;;3.63;1.95;;;;;;;12.55;67.12;102045.81;4968638;28;20473;-51
2023/05/18 03:33:00;;;;;;;5.25;2.33;;;;;;;12.57;67.13;102049.09;4942489;29;20055;-46
2023/05/18 03:35:28;;;;;;;6.38;2.25;;;;;;;12.57;67.27;102051.88;4969485;28;20162;-45
2023/05/18 03:37:55;;;;;;;6.75;2.88;;;;;;;12.54;67.39;102046.16;4969820;28;20047;-46
2023/05/18 03:40:23;;;;;;;6.57;2.30;;;;;;;12.51;67.54;102053.19;4952137;28;20086;-52
2023/05/18 03:42:50;;;;;;;5.72;2.30;;;;;;;12.46;67.45;102047.78;4969734;28;20476;-46
2023/05/18 03:45:17;;;;;;;5.03;2.50;;;;;;;12.37;67.94;102038.63;4958210;28;20042;-45
2023/05/18 03:47:44;;;;;;;7.22;2.25;;;;;;;12.28;68.36;102042.53;4969501;28;20054;-47
2023/05/18 03:50:11;;;;;;;14.18;2.60;;;;;;;12.28;68.48;102048.91;4969758;28;20043;-45
2023/05/18 03:52:38;;;;;;;4.40;2.22;;;;;;;12.32;68.64;102049.06;4969312;28;20042;-46
2023/05/18 03:55:05;;;;;;;7.18;3.13;;;;;;;12.35;68.50;102052.03;4969879;28;20050;-46
2023/05/18 03:57:32;;;;;;;8.07;2.22;;;;;;;12.35;68.55;102045.66;4970618;28;20046;-48
2023/05/18 03:59:59;;;;;;;7.07;3.22;;;;;;;12.36;68.63;102041.75;4972063;28;20464;-53
2023/05/18 04:02:26;;;;;;;4.05;2.75;;;;;;;12.39;68.73;102043.88;4972833;28;20047;-51
2023/05/18 04:04:53;;;;;;;7.50;2.90;;;;;;;12.38;68.60;102043.03;4973539;28;20130;-46
2023/05/18 04:07:23;;;;;;;5.35;2.42;;;;;;;12.33;68.69;102037.66;4973577;28;20053;-47
2023/05/18 04:09:50;;;;;;;7.85;2.67;;;;;;;12.36;68.96;102039.78;4973376;28;20054;-46
2023/05/18 04:12:17;;;;;;;9.90;2.05;;;;;;;12.37;68.78;102038.63;4956356;28;20046;-46
2023/05/18 04:14:48;;;;;;;8.02;2.50;;;;;;;12.36;69.06;102039.78;4973695;28;20050;-46
2023/05/18 04:17:21;;;;;;;9.85;3.95;;;;;;;12.34;69.24;102041.25;4972289;28;20034;-46
2023/05/18 04:19:49;;;;;;;6.90;2.63;;;;;;;12.35;69.16;102040.91;4973162;28;20051;-48
2023/05/18 04:22:16;;;;;;;5.97;2.67;;;;;;;12.33;69.17;102037.66;4972755;28;20141;-46
2023/05/18 04:24:46;;;;;;;5.95;2.45;;;;;;;12.34;69.29;102027.38;4973123;28;20101;-46
2023/05/18 04:27:14;;;;;;;12.93;4.13;;;;;;;12.32;69.36;102033.22;4973190;28;20486;-47
2023/05/18 04:29:42;;;;;;;8.60;2.45;;;;;;;12.26;69.42;102031.75;4972041;28;20054;-46
2023/05/18 04:32:09;;;;;;;9.55;2.92;;;;;;;12.23;69.75;102032.41;4971888;28;20421;-48
2023/05/18 04:34:36;;;;;;;6.85;2.58;;;;;;;12.22;69.68;102030.78;4970999;28;20042;-45
2023/05/18 04:37:07;;;;;;;6.28;2.03;;;;;;;12.18;69.84;102024.22;4972851;28;20046;-45
2023/05/18 04:39:34;;;;;;;7.00;2.20;;;;;;;12.16;70.03;102029.28;4972893;28;20050;-47
2023/05/18 04:42:03;;;;;;;9.90;2.55;;;;;;;12.13;70.01;102018.84;4972028;28;20046;-53
2023/05/18 04:44:34;;;;;;;4.68;2.28;;;;;;;12.13;70.26;102029.94;4972882;28;20109;-45
2023/05/18 04:47:01;;;;;;;5.65;2.20;;;;;;;12.14;70.46;102037.13;4972628;28;20038;-47
2023/05/18 04:49:28;;;;;;;5.78;2.53;;;;;;;12.17;70.44;102030.94;4972743;28;20043;-48
2023/05/18 04:51:55;;;;;;;11.15;2.58;;;;;;;12.16;70.47;102030.13;4971646;28;20051;-46
2023/05/18 04:54:29;;;;;;;7.45;2.28;;;;;;;12.19;70.49;102045.31;4972370;28;20049;-45
2023/05/18 04:56:57;;;;;;;4.53;2.53;;;;;;;12.20;70.45;102038.63;4972420;28;20039;-46
2023/05/18 04:59:25;;;;;;;6.63;2.35;;;;;;;12.17;70.51;102044.81;4973017;28;20074;-47
2023/05/18 05:01:52;;;;;;;5.90;2.35;;;;;;;12.21;70.61;102040.22;4970781;28;20081;-46
2023/05/18 05:04:22;;;;;;;5.72;2.10;;;;;;;12.24;70.71;102042.38;4972198;28;20389;-46
2023/05/18 05:06:49;;;;;;;7.68;2.45;;;;;;;12.17;70.58;102045.63;4972342;28;20055;-46
2023/05/18 05:09:16;;;;;;;9.50;2.45;;;;;;;12.20;70.80;102046.94;4952908;28;20066;-45
2023/05/18 05:11:43;;;;;;;4.38;2.10;;;;;;;12.18;70.95;102044.47;4972059;28;20092;-45
2023/05/18 05:14:10;;;;;;;6.57;2.33;;;;;;;12.19;71.13;102045.31;4971845;28;20523;-46
2023/05/18 05:16:38;;;;;;;6.93;2.50;;;;;;;12.20;71.01;102046.94;4971828;28;20055;-45
2023/05/18 05:19:05;;;;;;;11.13;2.25;;;;;;;12.20;71.05;102047.75;4972032;28;20054;-45
2023/05/18 05:21:32;;;;;;;7.07;2.55;;;;;;;12.26;71.21;102051.19;4971529;28;20069;-46
2023/05/18 05:24:03;;;;;;;8.63;2.28;;;;;;;12.30;71.12;102045.81;4971826;28;20050;-53
2023/05/18 05:26:30;;;;;;;5.63;2.57;;;;;;;12.31;71.21;102053.00;4959700;28;20047;-46
2023/05/18 05:28:57;;;;;;;8.85;2.70;;;;;;;12.32;71.38;102047.13;4971169;28;20284;-45
2023/05/18 05:31:24;;;;;;;5.25;2.10;;;;;;;12.37;71.44;102041.41;4970296;28;20051;-46
2023/05/18 05:33:51;;;;;;;7.15;2.33;;;;;;;12.40;71.20;102040.75;4971008;28;20038;-46
2023/05/18 05:36:18;;;;;;;5.68;2.65;;;;;;;12.46;71.18;102045.00;4971729;28;20043;-49
2023/05/18 05:38:44;;;;;;;5.00;1.98;;;;;;;12.47;71.33;102054.97;4971900;28;20051;-49
2023/05/18 05:41:11;;;;;;;4.75;1.95;;;;;;;12.49;71.07;102055.47;4971682;28;20039;-45
2023/05/18 05:43:38;;;;;;;6.43;2.42;;;;;;;12.54;71.05;102055.31;4970703;28;20045;-45
2023/05/18 05:46:05;;;;;;;6.97;2.67;;;;;;;12.57;71.23;102053.84;4971723;28;20051;-51
2023/05/18 05:48:31;;;;;;;5.70;2.38;;;;;;;12.60;71.26;102051.19;4971690;28;20043;-45
2023/05/18 05:50:58;;;;;;;4.95;1.75;;;;;;;12.63;71.26;102053.31;4953905;28;20054;-45
2023/05/18 05:53:25;;;;;;;8.02;2.35;;;;;;;12.65;71.14;102059.41;4971164;28;20110;-46
2023/05/18 05:55:53;;;;;;;5.53;1.98;;;;;;;12.67;71.18;102059.88;4971245;28;20419;-45
2023/05/18 05:58:20;;;;;;;9.90;2.25;;;;;;;12.70;71.14;102062.00;4971380;28;20050;-46
2023/05/18 06:00:49;;;;;;;5.72;2.30;;;;;;;12.76;71.22;102055.13;4968510;28;20445;-52
2023/05/18 06:03:16;;;;;;;3.45;1.70;;;;;;;12.78;71.11;102063.16;4971114;28;20555;-45
2023/05/18 06:05:43;;;;;;;5.38;2.08;;;;;;;12.76;71.33;102071.00;4970842;28;20058;-48
2023/05/18 06:08:09;;;;;;;8.90;3.72;;;;;;;12.77;70.99;102062.31;4971354;28;20054;-46
2023/05/18 06:10:38;;;;;;;3.67;2.00;;;;;;;12.83;70.96;102071.31;4970822;28;20673;-47
2023/05/18 06:13:04;;;;;;;7.07;2.30;;;;;;;12.83;70.84;102068.53;4970830;28;20134;-45
2023/05/18 06:15:31;;;;;;;4.20;1.90;;;;;;;12.81;70.86;102068.06;4970639;28;20086;-47
2023/05/18 06:17:58;;;;;;;5.30;2.05;;;;;;;12.83;70.73;102063.81;4969927;28;20046;-46
2023/05/18 06:20:26;;;;;;;4.13;2.13;;;;;;;12.84;70.68;102064.59;4970283;28;20501;-46
2023/05/18 06:22:52;;;;;;;5.13;1.58;;;;;;;12.89;70.71;102070.00;4970747;28;20105;-45
2023/05/18 06:25:19;;;;;;;6.80;1.60;;;;;;;12.89;70.40;102066.41;4970658;28;20525;-45
2023/05/18 06:27:47;;;;;;;4.45;1.90;;;;;;;12.86;70.51;102064.28;4970841;28;20058;-45
2023/05/18 06:30:14;;;;;;;5.43;1.83;;;;;;;12.85;70.23;102066.22;4969803;28;20085;-47
2023/05/18 06:32:41;;;;;;;7.43;2.00;;;;;;;12.89;70.19;102074.75;4968573;28;20051;-46
2023/05/18 06:35:08;;;;;;;9.60;3.13;;;;;;;12.90;70.20;102077.19;4961540;28;20109;-54
2023/05/18 06:37:35;;;;;;;8.68;2.13;;;;;;;12.92;70.23;102068.53;4970415;28;20058;-46
2023/05/18 06:40:03;;;;;;;8.80;2.15;;;;;;;12.94;69.98;102069.00;4970362;28;20453;-48
2023/05/18 06:42:31;;;;;;;3.95;1.55;;;;;;;12.97;69.94;102065.59;4970087;28;20105;-51
2023/05/18 06:44:58;;;;;;;3.63;1.98;;;;;;;13.00;69.91;102068.50;4969001;28;20047;-46
2023/05/18 06:47:25;;;;;;;4.97;1.67;;;;;;;13.03;69.91;102070.63;4970624;28;20043;-46
2023/05/18 06:49:51;;;;;;;5.85;2.00;;;;;;;13.04;69.86;102072.28;4969966;28;20047;-46
2023/05/18 06:52:18;;;;;;;5.93;1.52;;;;;;;13.08;69.56;102075.25;4969296;28;20050;-46
2023/05/18 06:54:45;;;;;;;6.05;1.77;;;;;;;13.16;69.70;102074.38;4970062;28;20039;-46
2023/05/18 06:57:12;;;;;;;7.65;1.75;;;;;;;13.22;69.31;102078.63;4970676;28;20042;-45
2023/05/18 06:59:39;;;;;;;2.97;1.60;;;;;;;13.27;69.36;102078.47;4970230;28;20500;-49
2023/05/18 07:02:06;;;;;;;6.05;1.45;;;;;;;13.32;69.12;102075.50;4970151;28;20531;-49
2023/05/18 07:04:33;;;;;;;4.57;1.30;;;;;;;13.38;69.08;102079.75;4970307;28;20145;-45
2023/05/18 07:07:00;;;;;;;7.22;2.25;;;;;;;13.45;69.12;102077.25;4970003;28;20046;-46
2023/05/18 07:09:27;;;;;;;6.75;1.70;;;;;;;13.50;69.02;102071.53;4970125;28;20059;-45
2023/05/18 07:11:54;;;;;;;4.68;1.35;;;;;;;13.55;68.81;102082.47;4970240;28;20039;-48
2023/05/18 07:14:21;;;;;;;6.38;2.28;;;;;;;13.64;68.88;102085.22;4968350;28;20054;-48
2023/05/18 07:16:47;;;;;;;6.63;1.52;;;;;;;13.64;68.60;102083.25;4970154;28;20046;-46
2023/05/18 07:19:14;;;;;;;3.15;1.40;;;;;;;13.63;68.59;102095.56;4970719;28;20389;-45
2023/05/18 07:21:41;;;;;;;3.30;1.60;;;;;;;13.64;68.28;102086.03;4969705;28;20059;-46
2023/05/18 07:24:08;;;;;;;9.40;1.30;;;;;;;13.65;68.46;102087.69;4969123;28;20082;-47
2023/05/18 07:26:35;;;;;;;4.88;1.85;;;;;;;13.71;68.32;102085.53;4969907;28;20038;-45
2023/05/18 07:29:02;;;;;;;3.83;1.30;;;;;;;13.73;68.25;102084.03;4969967;28;20492;-45
2023/05/18 07:31:28;;;;;;;4.13;1.20;;;;;;;13.77;68.07;102085.00;4969091;28;20055;-49
2023/05/18 07:33:55;;;;;;;3.33;1.70;;;;;;;13.79;68.11;102088.25;4973825;28;20046;-48
2023/05/18 07:36:22;;;;;;;5.55;1.58;;;;;;;13.80;68.21;102083.50;4973679;28;20539;-45
2023/05/18 07:38:53;;;;;;;3.80;1.33;;;;;;;13.85;68.00;102097.22;4971861;28;20524;-48
2023/05/18 07:41:21;;;;;;;6.35;1.80;;;;;;;13.83;68.13;102092.00;4970106;28;20053;-48
2023/05/18 07:43:50;;;;;;;6.60;2.50;;;;;;;13.82;68.03;102093.16;4973649;28;20062;-45
2023/05/18 07:46:17;;;;;;;5.50;2.30;;;;;;;13.78;68.10;102089.41;4973515;28;20058;-47
2023/05/18 07:48:45;;;;;;;5.35;1.60;;;;;;;13.77;68.10;102092.53;4973920;28;20397;-46
2023/05/18 07:51:12;;;;;;;4.50;1.48;;;;;;;13.76;68.13;102100.06;4973318;28;20058;-50
2023/05/18 07:53:40;;;;;;;3.22;1.50;;;;;;;13.79;68.25;102104.94;4956170;28;20046;-47
2023/05/18 07:56:08;;;;;;;4.88;1.40;;;;;;;13.82;68.16;102104.28;4973275;28;20692;-47
2023/05/18 07:58:35;;;;;;;2.13;1.30;;;;;;;13.88;68.25;102102.97;4972354;28;20045;-45
2023/05/18 08:01:02;;;;;;;4.13;1.88;;;;;;;13.95;67.97;102103.25;4973183;28;20057;-45
2023/05/18 08:03:29;;;;;;;2.50;1.65;;;;;;;14.06;68.16;102102.88;4973337;28;20078;-46
2023/05/18 08:05:56;;;;;;;6.05;1.48;;;;;;;14.18;67.87;102105.75;4955667;28;20073;-45
2023/05/18 08:08:23;;;;;;;4.10;1.60;;;;;;;14.26;67.54;102104.88;4972807;28;20046;-46
2023/05/18 08:10:51;;;;;;;9.27;2.75;;;;;;;14.28;67.72;102094.22;4972178;28;21135;-45
2023/05/18 08:13:18;;;;;;;6.35;2.00;;;;;;;14.31;67.49;102108.34;4973349;28;20045;-53
2023/05/18 08:15:45;;;;;;;4.82;1.95;;;;;;;14.39;67.59;102109.44;4971966;28;20105;-47
2023/05/18 08:18:25;;;;;;;4.18;1.27;;;;;;;14.44;67.16;102098.06;4955510;28;20386;-46
2023/05/18 08:20:52;;;;;;;3.78;1.50;;;;;;;14.45;66.85;102111.69;4972626;28;20058;-47
2023/05/18 08:23:19;;;;;;;7.78;1.85;;;;;;;14.50;66.81;102107.88;4973026;28;20130;-45
2023/05/18 08:25:46;;;;;;;3.60;1.38;;;;;;;14.62;66.82;102110.72;4972658;28;20039;-46
2023/05/18 08:28:13;;;;;;;3.80;1.50;;;;;;;14.70;66.46;102100.66;4973252;28;20053;-48
2023/05/18 08:30:40;;;;;;;4.05;1.60;;;;;;;14.77;66.38;102110.13;4955636;28;20061;-45
2023/05/18 08:33:07;;;;;;;6.65;1.38;;;;;;;14.89;66.19;102110.19;4971510;28;20051;-47
2023/05/18 08:35:35;;;;;;;7.43;1.65;;;;;;;15.01;65.68;102115.81;4970720;28;20046;-45
2023/05/18 08:38:01;;;;;;;5.50;1.60;;;;;;;15.12;65.55;102108.66;4972049;28;20055;-49
2023/05/18 08:40:49;;;;;;;2.50;1.30;;;;;;;15.27;65.21;102113.59;4972625;28;20085;-45
2023/05/18 08:43:22;;;;;;;7.25;1.70;;;;;;;15.31;64.84;102110.09;4970864;28;20317;-47
2023/05/18 08:46:29;;;;;;;3.58;1.92;;;;;;;15.29;64.66;102113.25;4972656;28;20138;-46
2023/05/18 08:48:58;;;;;;;4.32;1.10;;;;;;;15.35;64.47;102113.84;4851055;29;20057;-46
2023/05/18 08:51:28;;;;;;;5.00;2.22;;;;;;;15.43;64.05;102104.56;4942651;28;20488;-45
2023/05/18 08:53:57;;;;;;;4.70;1.58;;;;;;;15.55;63.98;102110.22;4971517;28;20536;-45
2023/05/18 08:56:27;;;;;;;3.55;1.30;;;;;;;15.89;63.99;102114.56;4954178;28;20063;-48
2023/05/18 08:58:56;;;;;;;4.47;1.40;;;;;;;16.24;63.39;102107.34;4972247;28;20190;-46
2023/05/18 09:01:30;;;;;;;6.78;1.42;;;;;;;16.77;62.74;102107.06;4951428;29;20517;-46
2023/05/18 09:03:57;;;;;;;4.68;1.92;;;;;;;17.05;62.19;102105.06;4950163;28;20142;-46
2023/05/18 09:06:27;;;;;;;7.75;1.65;;;;;;;17.46;61.47;102098.22;4951630;28;20394;-45
2023/05/18 09:08:57;;;;;;;4.63;2.00;;;;;;;17.70;60.45;102094.47;4953154;28;20102;-45
2023/05/18 09:11:25;;;;;;;5.88;1.73;;;;;;;18.01;59.82;102096.44;4953119;28;20099;-46
2023/05/18 09:13:53;;;;;;;5.40;2.05;;;;;;;18.72;58.52;102085.72;4952630;29;20099;-45
2023/05/18 09:16:20;;;;;;;2.80;1.38;;;;;;;18.89;57.15;102101.31;4952644;28;20071;-45
2023/05/18 09:18:47;;;;;;;4.22;1.30;;;;;;;18.70;56.65;102092.88;4952403;28;20521;-46
2023/05/18 09:21:14;;;;;;;4.85;1.75;;;;;;;18.45;57.07;102086.72;4952819;28;20058;-46
2023/05/18 09:23:42;;;;;;;4.68;1.55;;;;;;;18.65;56.59;102094.00;4951533;28;20068;-46
2023/05/18 09:26:11;;;;;;;4.40;1.30;;;;;;;18.47;55.56;102081.56;4952600;28;20504;-45
2023/05/18 09:28:40;;;;;;;4.63;1.52;;;;;;;18.73;55.56;102087.34;4952358;28;20552;-45
2023/05/18 09:31:15;;;;;;;3.90;1.20;;;;;;;19.00;54.01;102079.09;4952576;28;20457;-46
2023/05/18 09:33:43;;;;;;;5.57;1.98;;;;;;;19.06;53.74;102074.81;4949204;29;20054;-45
2023/05/18 09:36:11;;;;;;;5.38;1.55;;;;;;;19.20;52.63;102077.88;4951563;28;20504;-54
2023/05/18 09:38:44;;;;;;;3.10;1.25;;;;;;;18.82;52.81;102087.16;4952445;28;20039;-45
2023/05/18 09:41:15;;;;;;;2.45;1.65;;;;;;;18.41;53.03;102071.78;4951218;29;20043;-46
2023/05/18 09:43:47;;;;;;;5.93;1.58;;;;;;;18.13;53.56;102079.53;4939586;28;20042;-45
2023/05/18 09:46:14;;;;;;;5.45;1.65;;;;;;;17.90;53.62;102081.34;4952193;28;20103;-46
2023/05/18 09:48:45;;;;;;;8.90;1.77;;;;;;;17.66;53.56;102071.16;4952270;29;20494;-46
2023/05/18 09:51:16;;;;;;;5.70;1.70;;;;;;;17.50;53.76;102073.13;4952633;28;20509;-45
2023/05/18 09:53:53;;;;;;;4.43;1.52;;;;;;;17.97;53.50;102075.94;4952037;28;20157;-46
2023/05/18 09:56:22;;;;;;;3.15;1.63;;;;;;;18.09;53.17;102082.25;4966160;28;20043;-47
2023/05/18 09:58:49;;;;;;;3.70;1.30;;;;;;;18.51;52.45;102085.25;4951187;28;20047;-48
2023/05/18 10:01:16;;;;;;;4.88;1.70;;;;;;;18.97;52.15;102077.03;4957202;28;20046;-46
2023/05/18 10:03:47;;;;;;;3.95;1.48;;;;;;;19.14;51.47;102074.56;4969525;28;20039;-45
2023/05/18 10:06:18;;;;;;;6.15;2.72;;;;;;;18.75;51.60;102070.97;4971146;28;20061;-47
2023/05/18 10:08:45;;;;;;;4.75;1.77;;;;;;;18.41;52.43;102079.38;4954299;28;20161;-56
2023/05/18 10:11:17;;;;;;;5.55;1.30;;;;;;;18.13;52.66;102082.34;4971180;28;20101;-45
2023/05/18 10:13:45;;;;;;;3.47;1.30;;;;;;;17.84;53.19;102071.63;4971088;28;20051;-45
2023/05/18 10:16:14;;;;;;;6.93;1.15;;;;;;;17.72;53.29;102068.91;4970818;28;20113;-49
2023/05/18 10:18:41;;;;;;;3.85;1.00;;;;;;;17.55;52.93;102070.09;4970869;28;20551;-53
2023/05/18 10:21:11;;;;;;;4.05;1.38;;;;;;;17.91;53.28;102066.19;4953705;28;20047;-45
2023/05/18 10:23:39;;;;;;;1.63;0.90;;;;;;;18.89;51.33;102075.25;4970581;28;20113;-45
2023/05/18 10:26:08;;;;;;;5.30;2.72;;;;;;;18.87;50.83;102072.00;4970916;28;20042;-44
2023/05/18 10:28:44;;;;;;;7.07;1.65;;;;;;;18.98;50.84;102064.63;4970460;28;20508;-45
2023/05/18 10:31:14;;;;;;;3.75;1.10;;;;;;;19.47;50.41;102068.41;4969928;28;20069;-45
2023/05/18 10:33:54;;;;;;;6.55;1.25;;;;;;;19.61;49.16;102071.47;4964590;28;20042;-44
2023/05/18 10:36:43;;;;;;;6.22;2.22;;;;;;;19.74;49.31;102060.84;4967151;28;20047;-45
2023/05/18 10:39:10;;;;;;;2.50;1.25;;;;;;;19.95;48.75;102064.00;4970545;28;20050;-45
2023/05/18 10:41:39;;;;;;;3.83;1.20;;;;;;;19.89;49.36;102057.88;4967679;28;20054;-46
2023/05/18 10:44:06;;;;;;;1.98;0.90;;;;;;;19.61;49.10;102060.22;4970492;28;20138;-45
2023/05/18 10:46:34;;;;;;;3.33;1.27;;;;;;;19.31;49.03;102062.03;4970035;28;20676;-46
2023/05/18 10:49:03;;;;;;;5.32;1.30;;;;;;;19.03;49.32;102062.31;4969434;28;20051;-44
2023/05/18 10:51:31;;;;;;;4.82;1.40;;;;;;;18.88;49.41;102070.84;4970495;28;20519;-45
2023/05/18 10:54:11;;;;;;;6.85;1.55;;;;;;;19.11;49.71;102068.88;4953339;28;20038;-46
2023/05/18 10:56:43;;;;;;;5.63;1.70;;;;;;;19.25;49.54;102061.53;4953726;28;20050;-45
2023/05/18 10:59:11;;;;;;;;;;;;;;;19.23;49.59;102060.28;4970494;28;20061;-45
2023/05/18 11:01:40;;;;;;;4.50;1.73;;;;;;;19.24;49.64;102056.31;4969764;28;20419;-44
2023/05/18 11:04:10;;;;;;;5.30;2.85;;;;;;;19.22;50.02;102053.84;4970006;28;20047;-45
2023/05/18 11:06:38;;;;;;;4.50;2.00;;;;;;;19.16;49.26;102069.41;4968966;28;20062;-47
2023/05/18 11:09:05;;;;;;;4.13;1.70;;;;;;;19.07;49.09;102068.00;4970149;28;20038;-49
2023/05/18 11:11:58;;;;;;;6.50;1.70;;;;;;;18.94;49.28;102069.34;4968243;28;20050;-44
2023/05/18 11:14:30;;;;;;;4.90;1.58;;;;;;;18.78;49.29;102072.22;4958623;28;20047;-44
2023/05/18 11:17:32;;;;;;;4.55;1.50;;;;;;;18.72;49.71;102068.88;4969647;28;20035;-44
2023/05/18 11:20:08;;;;;;;3.42;1.80;;;;;;;18.61;50.16;102067.06;4872723;29;20060;-48
2023/05/18 11:22:48;;;;;;;4.97;2.13;;;;;;;18.48;50.11;102066.34;4947187;28;20142;-44
2023/05/18 11:25:23;;;;;;;8.35;3.20;;;;;;;18.33;49.83;102066.38;4969935;28;20047;-46
2023/05/18 11:27:51;;;;;;;5.15;1.10;;;;;;;18.36;50.28;102066.47;4968828;28;20138;-47
2023/05/18 11:30:46;;;;;;;5.78;1.52;;;;;;;18.53;50.14;102066.06;4968512;28;20385;-49
2023/05/18 11:33:25;;;;;;;8.43;2.70;;;;;;;18.65;50.44;102079.97;4969305;28;20314;-50